createdAt,value
2017-04-08T00:00:52.768Z,32.23
2017-04-08T00:02:03.080Z,32.23
2017-04-08T00:03:13.291Z,32.23
2017-04-08T00:04:23.565Z,32.04
2017-04-08T00:05:33.833Z,32.23
2017-04-08T00:06:43.801Z,32.23
2017-04-08T00:07:54.071Z,32.14
2017-04-08T00:09:04.595Z,32.23
2017-04-08T00:10:14.551Z,32.14
2017-04-08T00:11:24.826Z,32.04
2017-04-08T00:12:35.108Z,32.04
2017-04-08T00:13:45.388Z,32.04
2017-04-08T00:14:55.599Z,32.14
2017-04-08T00:16:05.873Z,32.14
2017-04-08T00:17:16.161Z,32.04
2017-04-08T00:18:26.431Z,32.14
2017-04-08T00:19:36.397Z,32.14
2017-04-08T00:20:46.969Z,32.04
2017-04-08T00:21:57.260Z,31.95
2017-04-08T00:23:07.531Z,32.04
2017-04-08T00:24:17.181Z,32.04
2017-04-08T00:25:27.146Z,32.04
2017-04-08T00:26:37.416Z,32.14
2017-04-08T00:27:47.743Z,31.95
2017-04-08T00:28:57.708Z,32.14
2017-04-08T00:30:07.989Z,32.14
2017-04-08T00:31:18.276Z,32.23
2017-04-08T00:32:28.850Z,32.14
2017-04-08T00:33:39.162Z,32.04
2017-04-08T00:34:48.833Z,32.04
2017-04-08T00:35:59.156Z,31.95
2017-04-08T00:37:09.444Z,32.14
2017-04-08T00:38:19.391Z,32.14
2017-04-08T00:39:29.674Z,32.14
2017-04-08T00:40:39.636Z,32.04
2017-04-08T00:41:49.916Z,32.04
2017-04-08T00:42:59.880Z,32.14
2017-04-08T00:44:10.095Z,31.85
2017-04-08T00:45:20.378Z,31.95
2017-04-08T00:46:30.087Z,31.95
2017-04-08T00:47:40.371Z,31.95
2017-04-08T00:48:50.645Z,32.04
2017-04-08T00:50:01.173Z,32.04
2017-04-08T00:51:11.442Z,32.04
2017-04-08T00:52:21.401Z,31.95
2017-04-08T00:53:31.679Z,31.95
2017-04-08T00:54:41.953Z,32.04
2017-04-08T00:55:52.522Z,31.85
2017-04-08T00:57:02.795Z,31.95
2017-04-08T00:58:13.061Z,31.95
2017-04-08T00:59:23.334Z,31.85
2017-04-08T01:00:33.623Z,31.95
2017-04-08T01:01:44.146Z,31.95
2017-04-08T01:02:54.123Z,31.95
2017-04-08T01:04:04.395Z,31.85
2017-04-08T01:05:14.682Z,31.95
2017-04-08T01:06:24.684Z,31.95
2017-04-08T01:07:34.952Z,31.95
2017-04-08T01:08:45.232Z,31.95
2017-04-08T01:09:55.494Z,31.95
2017-04-08T01:11:05.783Z,31.95
2017-04-08T01:12:15.741Z,31.95
2017-04-08T01:13:26.265Z,31.85
2017-04-08T01:14:36.541Z,31.95
2017-04-08T01:15:46.814Z,31.85
2017-04-08T01:16:57.078Z,31.85
2017-04-08T01:18:07.359Z,31.85
2017-04-08T01:19:17.891Z,31.95
2017-04-08T01:20:27.868Z,32.04
2017-04-08T01:21:38.137Z,32.04
2017-04-08T01:22:48.410Z,31.75
2017-04-08T01:23:58.368Z,31.75
2017-04-08T01:25:08.906Z,31.85
2017-04-08T01:26:18.868Z,31.75
2017-04-08T01:27:28.826Z,31.75
2017-04-08T01:28:39.088Z,31.95
2017-04-08T01:29:49.371Z,31.75
2017-04-08T01:30:59.948Z,31.85
2017-04-08T01:32:09.901Z,31.75
2017-04-08T01:33:20.172Z,31.85
2017-04-08T01:34:30.453Z,31.95
2017-04-08T01:35:40.725Z,31.85
2017-04-08T01:36:51.249Z,31.75
2017-04-08T01:38:01.532Z,31.85
2017-04-08T01:39:11.801Z,31.85
2017-04-08T01:40:22.118Z,31.85
2017-04-08T01:41:32.392Z,31.75
2017-04-08T01:42:42.905Z,31.85
2017-04-08T01:43:53.179Z,31.85
2017-04-08T01:45:02.842Z,31.65
2017-04-08T01:46:12.810Z,31.65
2017-04-08T01:47:22.466Z,31.65
2017-04-08T01:48:32.995Z,31.65
2017-04-08T01:49:43.267Z,31.65
2017-04-08T01:50:53.552Z,31.65
2017-04-08T01:52:03.508Z,31.75
2017-04-08T01:53:13.481Z,31.65
2017-04-08T01:54:24.006Z,31.75
2017-04-08T01:55:34.321Z,31.65
2017-04-08T01:56:44.588Z,31.65
2017-04-08T01:57:54.559Z,31.56
2017-04-08T01:59:04.831Z,31.65
2017-04-08T02:00:15.353Z,31.56
2017-04-08T02:01:25.318Z,31.65
2017-04-08T02:02:35.277Z,31.75
2017-04-08T02:03:45.552Z,31.65
2017-04-08T02:04:55.822Z,31.75
2017-04-08T02:06:06.047Z,31.56
2017-04-08T02:07:16.317Z,31.65
2017-04-08T02:08:26.284Z,31.56
2017-04-08T02:09:36.249Z,31.65
2017-04-08T02:10:46.522Z,31.65
2017-04-08T02:11:56.736Z,31.56
2017-04-08T02:13:07.003Z,31.65
2017-04-08T02:14:16.679Z,31.56
2017-04-08T02:15:26.942Z,31.56
2017-04-08T02:16:37.212Z,31.46
2017-04-08T02:17:47.118Z,31.65
2017-04-08T02:18:57.397Z,31.46
2017-04-08T02:20:07.667Z,31.65
2017-04-08T02:21:17.953Z,31.65
2017-04-08T02:22:28.223Z,31.65
2017-04-08T02:23:38.798Z,31.65
2017-04-08T02:24:49.070Z,31.56
2017-04-08T02:25:59.035Z,31.65
2017-04-08T02:27:09.319Z,31.65
2017-04-08T02:28:19.281Z,31.65
2017-04-08T02:29:29.861Z,31.65
2017-04-08T02:30:40.135Z,31.65
2017-04-08T02:31:49.785Z,31.65
2017-04-08T02:32:59.428Z,31.65
2017-04-08T02:34:09.704Z,31.56
2017-04-08T02:35:20.223Z,31.65
2017-04-08T02:36:30.493Z,31.46
2017-04-08T02:37:40.773Z,31.56
2017-04-08T02:38:51.035Z,31.56
2017-04-08T02:40:01.314Z,31.46
2017-04-08T02:41:11.884Z,31.46
2017-04-08T02:42:22.161Z,31.46
2017-04-08T02:43:32.424Z,31.65
2017-04-08T02:44:42.380Z,31.65
2017-04-08T02:45:52.335Z,31.56
2017-04-08T02:47:02.542Z,31.65
2017-04-08T02:48:12.500Z,31.46
2017-04-08T02:49:22.781Z,31.56
2017-04-08T02:50:33.063Z,31.65
2017-04-08T02:51:43.327Z,31.46
2017-04-08T02:52:53.886Z,31.56
2017-04-08T02:54:03.537Z,31.56
2017-04-08T02:55:13.500Z,31.46
2017-04-08T02:56:23.815Z,31.56
2017-04-08T02:57:34.087Z,31.56
2017-04-08T02:58:45.057Z,31.46
2017-04-08T02:59:55.015Z,31.46
2017-04-08T03:01:05.290Z,31.46
2017-04-08T03:02:14.938Z,31.46
2017-04-08T03:03:25.514Z,31.46
2017-04-08T03:04:36.086Z,31.46
2017-04-08T03:05:46.360Z,31.56
2017-04-08T03:06:56.685Z,31.46
2017-04-08T03:08:06.642Z,31.46
2017-04-08T03:09:16.909Z,31.46
2017-04-08T03:10:27.216Z,31.37
2017-04-08T03:11:37.173Z,31.46
2017-04-08T03:12:47.437Z,31.46
2017-04-08T03:13:57.736Z,31.37
2017-04-08T03:15:08.008Z,31.46
2017-04-08T03:16:18.547Z,31.37
2017-04-08T03:17:28.506Z,31.37
2017-04-08T03:18:38.782Z,31.37
2017-04-08T03:19:48.754Z,31.37
2017-04-08T03:20:58.402Z,31.35
2017-04-08T03:22:09.037Z,31.46
2017-04-08T03:23:19.004Z,31.27
2017-04-08T03:24:28.970Z,31.37
2017-04-08T03:25:38.931Z,31.37
2017-04-08T03:26:49.224Z,31.35
2017-04-08T03:27:59.436Z,31.37
2017-04-08T03:29:09.704Z,31.26
2017-04-08T03:30:19.998Z,31.26
2017-04-08T03:31:30.266Z,31.26
2017-04-08T03:32:40.534Z,31.35
2017-04-08T03:33:51.098Z,31.37
2017-04-08T03:35:01.381Z,31.35
2017-04-08T03:36:11.653Z,31.46
2017-04-08T03:37:21.929Z,31.37
2017-04-08T03:38:32.205Z,31.37
2017-04-08T03:39:42.776Z,31.35
2017-04-08T03:40:53.347Z,31.27
2017-04-08T03:42:03.625Z,31.26
2017-04-08T03:43:13.897Z,31.35
2017-04-08T03:44:24.156Z,31.27
2017-04-08T03:45:34.677Z,31.37
2017-04-08T03:46:44.633Z,31.27
2017-04-08T03:47:54.908Z,31.35
2017-04-08T03:49:04.873Z,31.35
2017-04-08T03:50:15.150Z,31.37
2017-04-08T03:51:25.366Z,31.37
2017-04-08T03:52:35.633Z,31.27
2017-04-08T03:53:45.912Z,31.37
2017-04-08T03:54:55.889Z,31.37
2017-04-08T03:56:05.551Z,31.27
2017-04-08T03:57:16.072Z,31.35
2017-04-08T03:58:26.345Z,31.46
2017-04-08T03:59:36.619Z,31.37
2017-04-08T04:00:46.573Z,31.35
2017-04-08T04:01:56.540Z,31.08
2017-04-08T04:03:07.115Z,31.16
2017-04-08T04:04:17.385Z,31.18
2017-04-08T04:05:27.677Z,31.27
2017-04-08T04:06:37.944Z,31.08
2017-04-08T04:07:48.225Z,31.27
2017-04-08T04:08:58.757Z,31.16
2017-04-08T04:10:09.041Z,31.18
2017-04-08T04:11:19.308Z,31.08
2017-04-08T04:12:29.579Z,30.79
2017-04-08T04:13:39.273Z,30.79
2017-04-08T04:14:49.481Z,30.88
2017-04-08T04:15:59.747Z,30.88
2017-04-08T04:17:10.026Z,30.79
2017-04-08T04:18:20.290Z,30.88
2017-04-08T04:19:30.277Z,30.79
2017-04-08T04:20:40.542Z,30.6
2017-04-08T04:21:50.497Z,30.69
2017-04-08T04:23:00.764Z,30.69
2017-04-08T04:24:10.750Z,30.79
2017-04-08T04:25:21.027Z,30.69
2017-04-08T04:26:31.554Z,30.69
2017-04-08T04:27:41.829Z,30.69
2017-04-08T04:28:52.108Z,30.69
2017-04-08T04:30:02.388Z,30.5
2017-04-08T04:31:12.661Z,30.79
2017-04-08T04:32:23.198Z,30.69
2017-04-08T04:33:33.466Z,30.69
2017-04-08T04:34:43.740Z,30.4
2017-04-08T04:35:54.010Z,30.6
2017-04-08T04:37:03.983Z,30.6
2017-04-08T04:38:14.554Z,30.31
2017-04-08T04:39:24.815Z,30.4
2017-04-08T04:40:35.097Z,30.4
2017-04-08T04:41:45.368Z,30.5
2017-04-08T04:42:55.634Z,30.4
2017-04-08T04:44:06.166Z,30.4
2017-04-08T04:45:16.443Z,30.4
2017-04-08T04:46:26.402Z,30.4
2017-04-08T04:47:36.662Z,30.4
2017-04-08T04:48:46.929Z,30.31
2017-04-08T04:49:57.468Z,30.4
2017-04-08T04:51:07.741Z,30.4
2017-04-08T04:52:18.013Z,29.93
2017-04-08T04:53:28.284Z,30.11
2017-04-08T04:54:38.554Z,30.11
2017-04-08T04:55:48.773Z,29.93
2017-04-08T04:56:59.063Z,30.31
2017-04-08T04:58:09.337Z,30.21
2017-04-08T04:59:19.619Z,30.11
2017-04-08T05:00:29.914Z,30.4
2017-04-08T05:01:40.183Z,29.93
2017-04-08T05:02:50.467Z,30.02
2017-04-08T05:04:00.441Z,30.02
2017-04-08T05:05:10.410Z,30.11
2017-04-08T05:06:20.690Z,30.02
2017-04-08T05:07:31.210Z,30.11
2017-04-08T05:08:41.180Z,30.02
2017-04-08T05:09:51.455Z,30.11
2017-04-08T05:11:01.725Z,30.21
2017-04-08T05:12:11.999Z,29.93
2017-04-08T05:13:22.528Z,30.21
2017-04-08T05:14:32.799Z,30.11
2017-04-08T05:15:43.071Z,30.11
2017-04-08T05:16:53.348Z,30.02
2017-04-08T05:18:03.618Z,30.31
2017-04-08T05:19:14.142Z,29.83
2017-04-08T05:20:24.415Z,29.83
2017-04-08T05:21:34.686Z,29.93
2017-04-08T05:22:44.985Z,29.73
2017-04-08T05:23:54.947Z,29.83
2017-04-08T05:25:05.478Z,29.93
2017-04-08T05:26:15.116Z,29.93
2017-04-08T05:27:25.185Z,29.73
2017-04-08T05:28:35.176Z,29.83
2017-04-08T05:29:45.457Z,29.73
2017-04-08T05:30:56.035Z,29.73
2017-04-08T05:32:06.012Z,29.83
2017-04-08T05:33:15.667Z,29.73
2017-04-08T05:34:25.635Z,30.02
2017-04-08T05:35:35.598Z,29.93
2017-04-08T05:36:46.163Z,29.73
2017-04-08T05:37:56.440Z,29.83
2017-04-08T05:39:06.417Z,29.83
2017-04-08T05:40:16.695Z,29.83
2017-04-08T05:41:26.662Z,29.93
2017-04-08T05:42:37.200Z,29.83
2017-04-08T05:43:47.169Z,29.73
2017-04-08T05:44:57.441Z,29.83
2017-04-08T05:46:07.711Z,29.83
2017-04-08T05:47:17.993Z,29.93
2017-04-08T05:48:28.525Z,29.93
2017-04-08T05:49:38.191Z,29.93
2017-04-08T05:50:48.175Z,29.73
2017-04-08T05:51:58.140Z,29.83
2017-04-08T05:53:08.127Z,29.83
2017-04-08T05:54:18.651Z,29.73
2017-04-08T05:55:28.612Z,29.93
2017-04-08T05:56:38.584Z,29.54
2017-04-08T05:57:48.854Z,29.54
2017-04-08T05:58:58.829Z,29.44
2017-04-08T06:00:09.351Z,29.44
2017-04-08T06:01:19.626Z,29.54
2017-04-08T06:02:29.901Z,29.54
2017-04-08T06:03:40.173Z,30.11
2017-04-08T06:04:50.132Z,30.02
2017-04-08T06:06:00.704Z,29.83
2017-04-08T06:07:10.372Z,29.83
2017-04-08T06:08:20.326Z,29.63
2017-04-08T06:09:30.304Z,29.73
2017-04-08T06:10:40.595Z,29.73
2017-04-08T06:11:50.817Z,29.73
2017-04-08T06:13:01.093Z,29.63
2017-04-08T06:14:11.074Z,29.83
2017-04-08T06:15:21.357Z,29.83
2017-04-08T06:16:31.010Z,29.54
2017-04-08T06:17:41.594Z,29.63
2017-04-08T06:18:51.915Z,29.73
2017-04-08T06:20:02.198Z,29.63
2017-04-08T06:21:12.161Z,29.63
2017-04-08T06:22:22.434Z,29.63
2017-04-08T06:23:32.983Z,29.83
2017-04-08T06:24:42.956Z,29.63
2017-04-08T06:25:53.230Z,29.73
2017-04-08T06:27:03.506Z,29.83
2017-04-08T06:28:12.853Z,29.83
2017-04-08T06:29:23.058Z,29.83
2017-04-08T06:30:33.341Z,29.63
2017-04-08T06:31:43.662Z,29.73
2017-04-08T06:32:53.627Z,29.83
2017-04-08T06:34:03.911Z,29.83
2017-04-08T06:35:14.440Z,29.63
2017-04-08T06:36:24.708Z,29.63
2017-04-08T06:37:35.011Z,29.63
2017-04-08T06:38:45.281Z,29.35
2017-04-08T06:39:55.253Z,29.63
2017-04-08T06:41:05.780Z,29.63
2017-04-08T06:42:15.760Z,29.63
2017-04-08T06:43:25.723Z,29.63
2017-04-08T06:44:36.024Z,29.35
2017-04-08T06:45:46.306Z,29.54
2017-04-08T06:46:56.524Z,29.83
2017-04-08T06:48:06.490Z,29.73
2017-04-08T06:49:16.763Z,29.63
2017-04-08T06:50:27.036Z,29.83
2017-04-08T06:51:37.314Z,29.83
2017-04-08T06:52:47.518Z,29.73
2017-04-08T06:53:57.174Z,29.44
2017-04-08T06:55:07.457Z,29.54
2017-04-08T06:56:17.769Z,29.73
2017-04-08T06:57:28.059Z,29.54
2017-04-08T06:58:38.282Z,29.54
2017-04-08T06:59:48.556Z,29.73
2017-04-08T07:00:58.851Z,29.63
2017-04-08T07:02:09.122Z,29.35
2017-04-08T07:03:19.411Z,29.73
2017-04-08T07:04:29.935Z,29.63
2017-04-08T07:05:40.204Z,29.83
2017-04-08T07:06:50.168Z,29.44
2017-04-08T07:08:00.139Z,29.54
2017-04-08T07:09:10.110Z,29.63
2017-04-08T07:10:20.646Z,29.54
2017-04-08T07:11:30.620Z,29.54
2017-04-08T07:12:40.899Z,29.35
2017-04-08T07:13:51.194Z,29.25
2017-04-08T07:15:01.150Z,29.54
2017-04-08T07:16:11.739Z,29.35
2017-04-08T07:17:22.011Z,29.63
2017-04-08T07:18:32.298Z,29.93
2017-04-08T07:19:42.465Z,29.44
2017-04-08T07:20:52.732Z,29.44
2017-04-08T07:22:02.328Z,29.73
2017-04-08T07:23:12.609Z,29.44
2017-04-08T07:24:22.898Z,29.54
2017-04-08T07:25:33.178Z,29.54
2017-04-08T07:26:43.146Z,29.54
2017-04-08T07:27:53.720Z,29.44
2017-04-08T07:29:04.009Z,29.54
2017-04-08T07:30:13.970Z,29.44
2017-04-08T07:31:24.252Z,29.63
2017-04-08T07:32:34.218Z,29.63
2017-04-08T07:33:44.754Z,29.54
2017-04-08T07:34:54.402Z,29.63
2017-04-08T07:36:04.366Z,29.73
2017-04-08T07:37:14.641Z,29.44
2017-04-08T07:38:24.918Z,29.35
2017-04-08T07:39:35.524Z,29.73
2017-04-08T07:40:45.490Z,29.83
2017-04-08T07:41:55.770Z,29.44
2017-04-08T07:43:05.431Z,29.63
2017-04-08T07:44:15.710Z,29.63
2017-04-08T07:45:26.253Z,29.63
2017-04-08T07:46:36.527Z,29.44
2017-04-08T07:47:46.800Z,29.54
2017-04-08T07:48:57.086Z,29.73
2017-04-08T07:50:07.370Z,29.44
2017-04-08T07:51:17.647Z,29.25
2017-04-08T07:52:27.624Z,29.35
2017-04-08T07:53:37.908Z,29.25
2017-04-08T07:54:47.907Z,29.25
2017-04-08T07:55:58.185Z,29.35
2017-04-08T07:57:08.721Z,29.06
2017-04-08T07:58:19.003Z,29.15
2017-04-08T07:59:29.277Z,29.35
2017-04-08T08:00:39.554Z,29.15
2017-04-08T08:01:50.049Z,29.15
2017-04-08T08:02:59.964Z,29.25
2017-04-08T08:04:10.248Z,29.35
2017-04-08T08:05:19.603Z,29.15
2017-04-08T08:06:29.579Z,29.25
2017-04-08T08:07:39.872Z,29.35
2017-04-08T08:08:50.145Z,29.25
2017-04-08T08:10:00.148Z,29.35
2017-04-08T08:11:10.429Z,29.25
2017-04-08T08:12:20.417Z,29.35
2017-04-08T08:13:30.447Z,29.25
2017-04-08T08:14:40.973Z,29.35
2017-04-08T08:15:50.936Z,29.25
2017-04-08T08:17:01.210Z,29.25
2017-04-08T08:18:11.178Z,29.25
2017-04-08T08:19:21.459Z,29.25
2017-04-08T08:20:31.671Z,29.15
2017-04-08T08:21:41.954Z,29.15
2017-04-08T08:22:51.916Z,29.35
2017-04-08T08:24:02.202Z,29.35
2017-04-08T08:25:11.871Z,29.35
2017-04-08T08:26:22.090Z,29.44
2017-04-08T08:27:32.366Z,29.25
2017-04-08T08:28:42.644Z,29.15
2017-04-08T08:29:52.924Z,29.35
2017-04-08T08:31:03.239Z,29.35
2017-04-08T08:32:13.461Z,29.35
2017-04-08T08:33:23.748Z,29.35
2017-04-08T08:34:34.028Z,29.54
2017-04-08T08:35:44.504Z,29.54
2017-04-08T08:36:54.792Z,29.54
2017-04-08T08:38:05.367Z,29.44
2017-04-08T08:39:15.669Z,29.35
2017-04-08T08:40:25.644Z,29.35
2017-04-08T08:41:35.926Z,28.96
2017-04-08T08:42:46.296Z,29.27
2017-04-08T08:43:56.822Z,28.96
2017-04-08T08:45:07.095Z,28.96
2017-04-08T08:46:17.086Z,29.07
2017-04-08T08:47:27.367Z,29.17
2017-04-08T08:48:37.653Z,29.07
2017-04-08T08:49:48.193Z,29.07
2017-04-08T08:50:58.484Z,29.07
2017-04-08T08:52:08.486Z,28.96
2017-04-08T08:53:18.454Z,29.07
2017-04-08T08:54:28.745Z,29.06
2017-04-08T08:55:39.019Z,29.17
2017-04-08T08:56:48.687Z,29.17
2017-04-08T08:57:58.666Z,29.07
2017-04-08T08:59:08.948Z,29.07
2017-04-08T09:00:19.232Z,29.06
2017-04-08T09:01:29.785Z,29.07
2017-04-08T09:02:40.070Z,29.07
2017-04-08T09:03:50.363Z,29.07
2017-04-08T09:05:00.665Z,29.07
2017-04-08T09:06:10.647Z,28.97
2017-04-08T09:07:20.250Z,28.97
2017-04-08T09:08:30.571Z,28.97
2017-04-08T09:09:40.857Z,29.07
2017-04-08T09:10:50.829Z,29.17
2017-04-08T09:12:01.115Z,28.97
2017-04-08T09:13:11.645Z,29.07
2017-04-08T09:14:21.611Z,29.07
2017-04-08T09:15:31.907Z,28.97
2017-04-08T09:16:41.877Z,29.07
2017-04-08T09:17:52.195Z,28.88
2017-04-08T09:19:02.107Z,28.97
2017-04-08T09:20:12.433Z,28.97
2017-04-08T09:21:22.734Z,28.88
2017-04-08T09:22:33.031Z,28.88
2017-04-08T09:23:43.330Z,28.78
2017-04-08T09:24:53.910Z,28.97
2017-04-08T09:26:03.573Z,28.78
2017-04-08T09:27:13.553Z,28.78
2017-04-08T09:28:23.839Z,28.88
2017-04-08T09:29:34.130Z,28.78
2017-04-08T09:30:44.688Z,28.78
2017-04-08T09:31:54.981Z,28.78
2017-04-08T09:33:04.960Z,28.69
2017-04-08T09:34:14.941Z,28.78
2017-04-08T09:35:25.242Z,28.69
2017-04-08T09:36:35.789Z,28.78
2017-04-08T09:37:45.466Z,28.69
2017-04-08T09:38:55.453Z,28.59
2017-04-08T09:40:05.440Z,28.59
2017-04-08T09:41:15.415Z,28.69
2017-04-08T09:42:25.375Z,28.69
2017-04-08T09:43:35.341Z,28.69
2017-04-08T09:44:45.318Z,28.69
2017-04-08T09:45:55.592Z,28.69
2017-04-08T09:47:05.882Z,28.49
2017-04-08T09:48:16.411Z,28.59
2017-04-08T09:49:26.708Z,28.69
2017-04-08T09:50:37.000Z,28.78
2017-04-08T09:51:47.290Z,28.49
2017-04-08T09:52:57.598Z,28.59
2017-04-08T09:54:07.837Z,28.49
2017-04-08T09:55:18.135Z,28.49
2017-04-08T09:56:28.436Z,28.4
2017-04-08T09:57:38.422Z,28.59
2017-04-08T09:58:48.713Z,28.59
2017-04-08T09:59:58.953Z,28.59
2017-04-08T10:01:09.257Z,28.59
2017-04-08T10:02:19.244Z,28.59
2017-04-08T10:03:29.545Z,28.49
2017-04-08T10:04:39.838Z,28.59
2017-04-08T10:05:50.053Z,28.59
2017-04-08T10:07:00.342Z,28.59
2017-04-08T10:08:10.622Z,28.59
2017-04-08T10:09:20.916Z,28.59
2017-04-08T10:10:30.901Z,28.59
2017-04-08T10:11:40.815Z,28.49
2017-04-08T10:12:51.105Z,28.49
2017-04-08T10:14:01.396Z,28.4
2017-04-08T10:15:11.113Z,28.3
2017-04-08T10:16:21.404Z,28.4
2017-04-08T10:17:31.956Z,28.02
2017-04-08T10:18:42.240Z,28.3
2017-04-08T10:19:52.533Z,28.49
2017-04-08T10:21:02.829Z,28.4
2017-04-08T10:22:13.131Z,28.59
2017-04-08T10:23:23.098Z,28.59
2017-04-08T10:24:33.401Z,28.49
2017-04-08T10:25:43.688Z,28.3
2017-04-08T10:26:53.999Z,27.92
2017-04-08T10:28:04.288Z,28.4
2017-04-08T10:29:14.836Z,28.4
2017-04-08T10:30:25.143Z,28.4
2017-04-08T10:31:35.424Z,28.4
2017-04-08T10:32:45.414Z,28.02
2017-04-08T10:33:55.699Z,28.02
2017-04-08T10:35:05.965Z,27.92
2017-04-08T10:36:16.263Z,27.92
2017-04-08T10:37:26.558Z,28.2
2017-04-08T10:38:36.839Z,28.3
2017-04-08T10:39:47.148Z,28.11
2017-04-08T10:40:57.678Z,28.02
2017-04-08T10:42:07.964Z,28.11
2017-04-08T10:43:18.242Z,28.11
2017-04-08T10:44:27.917Z,28.2
2017-04-08T10:45:38.211Z,28.2
2017-04-08T10:46:48.742Z,28.3
2017-04-08T10:47:59.144Z,28.2
2017-04-08T10:49:09.445Z,28.2
2017-04-08T10:50:19.747Z,28.11
2017-04-08T10:51:30.041Z,28.2
2017-04-08T10:52:40.622Z,28.2
2017-04-08T10:53:50.930Z,28.2
2017-04-08T10:55:01.293Z,28.3
2017-04-08T10:56:11.283Z,28.11
2017-04-08T10:57:21.568Z,28.2
2017-04-08T10:58:32.122Z,28.11
2017-04-08T10:59:42.410Z,28.2
2017-04-08T11:00:52.391Z,28.2
2017-04-08T11:02:02.673Z,28.11
2017-04-08T11:03:12.991Z,28.2
2017-04-08T11:04:23.558Z,28.2
2017-04-08T11:05:33.549Z,28.2
2017-04-08T11:06:43.831Z,28.3
2017-04-08T11:07:54.146Z,28.3
2017-04-08T11:09:04.171Z,28.11
2017-04-08T11:10:14.706Z,28.3
2017-04-08T11:11:24.367Z,28.3
2017-04-08T11:12:34.352Z,28.11
2017-04-08T11:13:44.650Z,28.3
2017-04-08T11:14:54.325Z,28.2
2017-04-08T11:16:04.916Z,28.2
2017-04-08T11:17:14.909Z,28.3
2017-04-08T11:18:25.236Z,28.31
2017-04-08T11:19:35.521Z,28.2
2017-04-08T11:20:45.182Z,28.3
2017-04-08T11:21:55.766Z,28.2
2017-04-08T11:23:06.070Z,28.3
2017-04-08T11:24:16.354Z,28.11
2017-04-08T11:25:26.640Z,28.3
2017-04-08T11:26:36.624Z,28.2
2017-04-08T11:27:47.201Z,28.2
2017-04-08T11:28:57.503Z,28.11
2017-04-08T11:30:07.793Z,27.93
2017-04-08T11:31:18.100Z,27.92
2017-04-08T11:32:28.081Z,28.2
2017-04-08T11:33:38.316Z,28.02
2017-04-08T11:34:48.298Z,28.02
2017-04-08T11:35:57.983Z,28.11
2017-04-08T11:37:08.286Z,28.02
2017-04-08T11:38:17.974Z,27.82
2017-04-08T11:39:28.268Z,28.11
2017-04-08T11:40:38.253Z,27.92
2017-04-08T11:41:48.552Z,27.93
2017-04-08T11:42:58.860Z,27.83
2017-04-08T11:44:08.833Z,28.02
2017-04-08T11:45:19.432Z,27.53
2017-04-08T11:46:29.736Z,27.55
2017-04-08T11:47:39.406Z,27.53
2017-04-08T11:48:49.702Z,27.45
2017-04-08T11:49:59.981Z,27.64
2017-04-08T11:51:10.579Z,27.72
2017-04-08T11:52:20.856Z,27.53
2017-04-08T11:53:31.148Z,27.83
2017-04-08T11:54:40.820Z,27.44
2017-04-08T11:55:51.117Z,27.74
2017-04-08T11:57:01.032Z,27.26
2017-04-08T11:58:11.350Z,27.45
2017-04-08T11:59:21.639Z,27.53
2017-04-08T12:00:31.307Z,27.06
2017-04-08T12:01:41.280Z,27.45
2017-04-08T12:02:51.833Z,27.45
2017-04-08T12:04:01.799Z,27.45
2017-04-08T12:05:11.767Z,27.45
2017-04-08T12:06:21.786Z,27.35
2017-04-08T12:07:32.071Z,27.45
2017-04-08T12:08:42.625Z,27.26
2017-04-08T12:09:52.929Z,27.35
2017-04-08T12:11:02.946Z,27.16
2017-04-08T12:12:13.248Z,27.26
2017-04-08T12:13:23.525Z,27.45
2017-04-08T12:14:34.073Z,27.55
2017-04-08T12:15:44.368Z,27.35
2017-04-08T12:16:54.667Z,27.26
2017-04-08T12:18:04.972Z,27.35
2017-04-08T12:19:15.250Z,27.35
2017-04-08T12:20:25.840Z,27.26
2017-04-08T12:21:35.519Z,27.16
2017-04-08T12:22:45.187Z,27.26
2017-04-08T12:23:55.471Z,27.26
2017-04-08T12:25:05.762Z,27.35
2017-04-08T12:26:16.300Z,27.35
2017-04-08T12:27:26.287Z,27.26
2017-04-08T12:28:36.268Z,27.16
2017-04-08T12:29:46.584Z,27.16
2017-04-08T12:30:56.563Z,27.26
2017-04-08T12:32:06.791Z,27.26
2017-04-08T12:33:17.104Z,27.06
2017-04-08T12:34:27.406Z,27.35
2017-04-08T12:35:37.711Z,27.26
2017-04-08T12:36:48.006Z,27.06
2017-04-08T12:37:58.596Z,27.26
2017-04-08T12:39:08.257Z,27.16
2017-04-08T12:40:18.550Z,27.35
2017-04-08T12:41:28.840Z,27.26
2017-04-08T12:42:39.116Z,27.16
2017-04-08T12:43:49.336Z,27.06
2017-04-08T12:44:59.307Z,27.16
2017-04-08T12:46:09.269Z,27.06
2017-04-08T12:47:18.932Z,26.97
2017-04-08T12:48:29.236Z,27.16
2017-04-08T12:49:39.816Z,27.26
2017-04-08T12:50:49.805Z,27.06
2017-04-08T12:52:00.087Z,27.06
2017-04-08T12:53:10.164Z,27.06
2017-04-08T12:54:20.460Z,27.16
2017-04-08T12:55:31.057Z,27.16
2017-04-08T12:56:41.350Z,27.06
2017-04-08T12:57:51.340Z,27.16
2017-04-08T12:59:01.619Z,27.06
2017-04-08T13:00:11.916Z,27.35
2017-04-08T13:01:22.500Z,27.35
2017-04-08T13:02:32.166Z,27.16
2017-04-08T13:03:42.464Z,27.26
2017-04-08T13:04:52.451Z,27.26
2017-04-08T13:06:02.728Z,27.26
2017-04-08T13:07:13.261Z,26.87
2017-04-08T13:08:23.558Z,26.97
2017-04-08T13:09:33.843Z,26.87
2017-04-08T13:10:43.808Z,26.87
2017-04-08T13:11:54.117Z,27.26
2017-04-08T13:13:04.343Z,27.15
2017-04-08T13:14:14.726Z,27.06
2017-04-08T13:15:25.021Z,27.06
2017-04-08T13:16:35.305Z,27.06
2017-04-08T13:17:44.966Z,27.26
2017-04-08T13:18:55.208Z,27.26
2017-04-08T13:20:05.486Z,27.24
2017-04-08T13:21:15.759Z,27.26
2017-04-08T13:22:25.741Z,27.35
2017-04-08T13:23:36.040Z,27.26
2017-04-08T13:24:46.576Z,27.34
2017-04-08T13:25:56.881Z,27.26
2017-04-08T13:27:06.854Z,27.26
2017-04-08T13:28:17.142Z,27.15
2017-04-08T13:29:27.140Z,27.45
2017-04-08T13:30:37.677Z,27.44
2017-04-08T13:31:47.955Z,27.35
2017-04-08T13:32:58.233Z,27.53
2017-04-08T13:34:08.524Z,27.05
2017-04-08T13:35:18.827Z,27.16
2017-04-08T13:36:29.351Z,27.15
2017-04-08T13:37:39.641Z,27.16
2017-04-08T13:38:49.924Z,27.53
2017-04-08T13:40:00.202Z,27.34
2017-04-08T13:41:10.494Z,27.62
2017-04-08T13:42:21.075Z,27.53
2017-04-08T13:43:31.355Z,27.16
2017-04-08T13:44:41.639Z,27.35
2017-04-08T13:45:51.963Z,27.16
2017-04-08T13:47:02.269Z,27.15
2017-04-08T13:48:12.543Z,27.05
2017-04-08T13:49:22.531Z,27.34
2017-04-08T13:50:32.809Z,27.15
2017-04-08T13:51:42.791Z,27.44
2017-04-08T13:52:52.756Z,27.24
2017-04-08T13:54:03.348Z,27.34
2017-04-08T13:55:13.014Z,27.64
2017-04-08T13:56:23.320Z,27.16
2017-04-08T13:57:33.295Z,27.15
2017-04-08T13:58:43.618Z,27.15
2017-04-08T13:59:54.217Z,27.34
2017-04-08T14:01:04.521Z,27.15
2017-04-08T14:02:14.821Z,27.34
2017-04-08T14:03:24.552Z,27.24
2017-04-08T14:04:34.852Z,27.06
2017-04-08T14:05:45.486Z,27.05
2017-04-08T14:06:55.502Z,27.24
2017-04-08T14:08:05.481Z,27.05
2017-04-08T14:09:15.498Z,27.53
2017-04-08T14:10:25.811Z,27.62
2017-04-08T14:11:36.372Z,27.44
2017-04-08T14:12:46.059Z,27.24
2017-04-08T14:13:56.368Z,27.34
2017-04-08T14:15:06.366Z,27.24
2017-04-08T14:16:16.659Z,27.53
2017-04-08T14:17:27.259Z,27.24
2017-04-08T14:18:37.259Z,27.34
2017-04-08T14:19:47.590Z,27.53
2017-04-08T14:20:57.269Z,27.44
2017-04-08T14:22:07.322Z,27.24
2017-04-08T14:23:17.627Z,27.53
2017-04-08T14:24:27.606Z,27.34
2017-04-08T14:25:37.950Z,27.44
2017-04-08T14:26:48.251Z,27.34
2017-04-08T14:27:58.551Z,27.62
2017-04-08T14:29:08.790Z,27.53
2017-04-08T14:30:19.125Z,27.44
2017-04-08T14:31:29.113Z,27.53
2017-04-08T14:32:39.452Z,27.44
2017-04-08T14:33:49.746Z,27.34
2017-04-08T14:35:00.383Z,27.24
2017-04-08T14:36:10.381Z,27.53
2017-04-08T14:37:20.697Z,27.53
2017-04-08T14:38:30.986Z,27.53
2017-04-08T14:39:41.288Z,27.24
2017-04-08T14:40:51.880Z,27.34
2017-04-08T14:42:02.183Z,27.53
2017-04-08T14:43:12.515Z,27.53
2017-04-08T14:44:22.832Z,27.44
2017-04-08T14:45:33.389Z,27.44
2017-04-08T14:46:43.709Z,27.44
2017-04-08T14:47:54.021Z,27.44
2017-04-08T14:49:04.012Z,27.62
2017-04-08T14:50:14.336Z,27.24
2017-04-08T14:51:24.309Z,27.34
2017-04-08T14:52:34.863Z,27.34
2017-04-08T14:53:45.175Z,27.53
2017-04-08T14:54:55.326Z,27.34
2017-04-08T14:56:05.627Z,27.53
2017-04-08T14:57:15.922Z,27.53
2017-04-08T14:58:26.478Z,27.34
2017-04-08T14:59:36.489Z,27.53
2017-04-08T15:00:46.483Z,27.53
2017-04-08T15:01:56.458Z,27.53
2017-04-08T15:03:06.133Z,27.53
2017-04-08T15:04:16.426Z,27.34
2017-04-08T15:05:26.433Z,27.34
2017-04-08T15:06:36.428Z,27.34